createdAt,value
2018-04-17T00:00:35.586Z,101630.30
2018-04-17T00:03:04.137Z,101619.55
2018-04-17T00:05:33.369Z,101634.28
2018-04-17T00:08:01.761Z,101634.70
2018-04-17T00:10:30.114Z,101636.41
2018-04-17T00:12:58.543Z,101636.89
2018-04-17T00:15:26.970Z,101638.27
2018-04-17T00:17:56.079Z,101637.02
2018-04-17T00:20:24.459Z,101642.64
2018-04-17T00:22:52.904Z,101653.86
2018-04-17T00:25:21.309Z,101648.23
2018-04-17T00:27:49.709Z,101649.52
2018-04-17T00:30:19.694Z,101652.53
2018-04-17T00:32:48.057Z,101654.66
2018-04-17T00:35:16.456Z,101658.11
2018-04-17T00:37:44.831Z,101663.73
2018-04-17T00:40:14.055Z,101671.91
2018-04-17T00:42:43.414Z,101676.20
2018-04-17T00:45:12.639Z,101675.36
2018-04-17T00:47:41.773Z,101676.23
2018-04-17T00:50:10.133Z,101680.08
2018-04-17T00:52:38.719Z,101682.70
2018-04-17T00:55:07.089Z,101678.39
2018-04-17T00:57:35.464Z,101681.88
2018-04-17T01:00:03.836Z,101682.31
2018-04-17T01:02:32.197Z,101686.63
2018-04-17T01:05:01.342Z,101684.02
2018-04-17T01:07:31.420Z,101686.17
2018-04-17T01:10:00.552Z,101686.20
2018-04-17T01:12:28.893Z,101685.77
2018-04-17T01:14:57.307Z,101691.80
2018-04-17T01:17:25.656Z,101689.66
2018-04-17T01:19:54.794Z,101695.22
2018-04-17T01:22:23.125Z,101693.93
2018-04-17T01:24:53.121Z,101695.66
2018-04-17T01:27:22.245Z,101697.39
2018-04-17T01:29:50.621Z,101702.14
2018-04-17T01:32:19.014Z,101703.00
2018-04-17T01:34:48.158Z,101703.02
2018-04-17T01:37:16.532Z,101706.45
2018-04-17T01:39:44.912Z,101706.44
2018-04-17T01:42:13.266Z,101709.89
2018-04-17T01:44:42.243Z,101706.02
2018-04-17T01:47:10.606Z,101710.75
2018-04-17T01:49:38.949Z,101713.78
2018-04-17T01:52:08.051Z,101709.88
2018-04-17T01:54:37.787Z,101713.31
2018-04-17T01:57:07.352Z,101712.89
2018-04-17T01:59:35.710Z,101715.45
2018-04-17T02:02:04.104Z,101711.13
2018-04-17T02:04:33.355Z,101711.13
2018-04-17T02:07:02.581Z,101714.16
2018-04-17T02:09:30.959Z,101721.02
2018-04-17T02:11:59.311Z,101731.77
2018-04-17T02:14:27.894Z,101724.91
2018-04-17T02:16:56.275Z,101722.72
2018-04-17T02:19:26.303Z,101726.59
2018-04-17T02:21:54.700Z,101726.58
2018-04-17T02:24:23.076Z,101727.42
2018-04-17T02:26:51.440Z,101721.39
2018-04-17T02:29:19.930Z,101723.97
2018-04-17T02:31:48.335Z,101726.12
2018-04-17T02:34:16.695Z,101728.70
2018-04-17T02:36:45.186Z,101726.98
2018-04-17T02:39:13.517Z,101732.11
2018-04-17T02:41:41.860Z,101736.84
2018-04-17T02:44:10.227Z,101739.35
2018-04-17T02:46:38.598Z,101741.52
2018-04-17T02:49:07.837Z,101741.89
2018-04-17T02:51:36.982Z,101744.89
2018-04-17T02:54:05.346Z,101739.27
2018-04-17T02:56:33.705Z,101744.88
2018-04-17T02:59:02.047Z,101747.86
2018-04-17T03:01:30.413Z,101750.47
2018-04-17T03:03:58.783Z,101753.50
2018-04-17T03:06:27.146Z,101759.47
2018-04-17T03:08:55.560Z,101762.75
2018-04-17T03:11:23.939Z,101766.56
2018-04-17T03:13:52.279Z,101773.48
2018-04-17T03:16:20.709Z,101767.01
2018-04-17T03:18:49.910Z,101772.64
2018-04-17T03:21:19.740Z,101778.67
2018-04-17T03:23:48.110Z,101781.67
2018-04-17T03:26:17.305Z,101784.25
2018-04-17T03:28:46.464Z,101780.81
2018-04-17T03:31:14.894Z,101782.53
2018-04-17T03:33:44.035Z,101786.79
2018-04-17T03:36:12.402Z,101790.72
2018-04-17T03:38:40.785Z,101784.25
2018-04-17T03:41:09.140Z,101788.97
2018-04-17T03:43:38.214Z,101787.67
2018-04-17T03:46:07.357Z,101781.21
2018-04-17T03:48:35.823Z,101782.87
2018-04-17T03:51:04.232Z,101787.64
2018-04-17T03:53:33.373Z,101782.02
2018-04-17T03:56:09.379Z,101794.03
2018-04-17T03:58:37.813Z,101793.59
2018-04-17T04:01:07.737Z,101792.30
2018-04-17T04:03:37.644Z,101804.76
2018-04-17T04:06:07.662Z,101804.73
2018-04-17T04:08:36.819Z,101808.16
2018-04-17T04:11:05.234Z,101808.99
2018-04-17T04:13:33.616Z,101812.86
2018-04-17T04:16:03.281Z,101811.96
2018-04-17T04:18:49.517Z,101811.95
2018-04-17T04:21:36.473Z,101814.98
2018-04-17T04:27:34.398Z,101819.66
2018-04-17T04:30:02.803Z,101823.91
2018-04-17T04:32:31.905Z,101823.89
2018-04-17T04:35:02.897Z,101827.35
2018-04-17T04:37:32.685Z,101831.59
2018-04-17T04:40:01.766Z,101831.14
2018-04-17T04:42:30.120Z,101836.27
2018-04-17T04:44:59.207Z,101835.90
2018-04-17T04:47:27.597Z,101835.88
2018-04-17T04:49:56.728Z,101843.19
2018-04-17T04:52:25.938Z,101843.22
2018-04-17T04:54:54.288Z,101850.55
2018-04-17T04:57:22.661Z,101854.84
2018-04-17T04:59:51.567Z,101863.45
2018-04-17T05:02:19.936Z,101865.64
2018-04-17T05:04:48.323Z,101875.14
2018-04-17T05:07:17.404Z,101876.47
2018-04-17T05:09:46.533Z,101885.95
2018-04-17T05:12:14.865Z,101888.56
2018-04-17T05:14:44.288Z,101897.20
2018-04-17T05:17:13.525Z,101896.02
2018-04-17T05:19:41.924Z,101897.02
2018-04-17T05:22:10.323Z,101901.77
2018-04-17T05:24:40.976Z,101899.65
2018-04-17T05:27:09.319Z,101905.64
2018-04-17T05:29:38.165Z,101915.14
2018-04-17T05:32:07.143Z,101915.17
2018-04-17T05:34:35.549Z,101914.29
2018-04-17T05:37:04.012Z,101919.91
2018-04-17T05:39:33.305Z,101924.72
2018-04-17T05:42:01.720Z,101923.92
2018-04-17T05:44:31.473Z,101929.14
2018-04-17T05:47:01.124Z,101936.45
2018-04-17T05:49:30.020Z,101940.73
2018-04-17T05:51:58.425Z,101944.66
2018-04-17T05:54:26.779Z,101942.52
2018-04-17T05:56:55.146Z,101947.31
2018-04-17T05:59:23.480Z,101954.67
2018-04-17T06:01:52.784Z,101962.00
2018-04-17T06:04:21.884Z,101961.18
2018-04-17T06:06:51.118Z,101968.52
2018-04-17T06:09:19.486Z,101964.97
2018-04-17T06:11:47.839Z,101977.36
2018-04-17T06:14:16.995Z,101977.74
2018-04-17T06:16:45.413Z,101985.03
2018-04-17T06:19:14.542Z,101993.32
2018-04-17T06:21:42.922Z,101994.66
2018-04-17T06:24:12.195Z,102000.31
2018-04-17T06:26:41.318Z,102002.13
2018-04-17T06:29:09.693Z,101999.20
2018-04-17T06:31:38.122Z,101993.70
2018-04-17T06:34:06.505Z,102001.52
2018-04-17T06:36:35.767Z,102003.64
2018-04-17T06:39:04.145Z,102002.38
2018-04-17T06:41:32.548Z,102005.41
2018-04-17T06:44:00.917Z,102010.14
2018-04-17T06:46:29.290Z,102010.59
2018-04-17T06:48:57.637Z,102011.05
2018-04-17T06:51:26.067Z,102011.48
2018-04-17T06:53:54.438Z,102007.27
2018-04-17T06:56:22.817Z,102010.75
2018-04-17T06:58:52.986Z,102014.23
2018-04-17T07:01:21.375Z,102023.71
2018-04-17T07:03:49.748Z,102020.30
2018-04-17T07:06:18.119Z,102015.53
2018-04-17T07:08:49.705Z,102019.43
2018-04-17T07:11:18.413Z,102021.58
2018-04-17T07:13:46.758Z,102023.29
2018-04-17T07:16:15.670Z,102021.58
2018-04-17T07:18:44.973Z,102024.59
2018-04-17T07:21:13.716Z,102027.20
2018-04-17T07:23:43.632Z,102030.20
2018-04-17T07:26:13.452Z,102031.94
2018-04-17T07:28:41.857Z,102034.95
2018-04-17T07:31:10.231Z,102041.44
2018-04-17T07:33:38.610Z,102036.27
2018-04-17T07:36:06.940Z,102034.55
2018-04-17T07:38:36.141Z,102039.73
2018-04-17T07:41:05.261Z,102047.92
2018-04-17T07:43:33.637Z,102038.91
2018-04-17T07:46:03.378Z,102033.69
2018-04-17T07:48:47.199Z,102036.72
2018-04-17T07:51:15.591Z,102034.13
2018-04-17T07:53:43.976Z,102044.08
2018-04-17T07:56:12.361Z,102041.45
2018-04-17T07:58:42.033Z,102041.88
2018-04-17T08:01:10.470Z,102040.58
2018-04-17T08:03:38.824Z,102043.16
2018-04-17T08:06:07.194Z,102045.30
2018-04-17T08:08:35.625Z,102040.11
2018-04-17T08:11:04.797Z,102055.21
2018-04-17T08:13:33.999Z,102047.87
2018-04-17T08:16:02.372Z,102045.70
2018-04-17T08:18:30.763Z,102055.65
2018-04-17T08:20:59.135Z,102056.08
2018-04-17T08:23:27.522Z,102061.24
2018-04-17T08:25:55.920Z,102060.36
2018-04-17T08:28:25.040Z,102059.05
2018-04-17T08:30:53.703Z,102053.86
2018-04-17T08:33:22.847Z,102060.76
2018-04-17T08:35:51.222Z,102056.40
2018-04-17T08:38:19.630Z,102057.25
2018-04-17T08:40:48.067Z,102056.81
2018-04-17T08:43:16.440Z,102061.55
2018-04-17T08:45:44.817Z,102056.74
2018-04-17T08:48:13.202Z,102059.34
2018-04-17T08:50:41.608Z,102058.02
2018-04-17T08:53:09.992Z,102057.57
2018-04-17T08:55:38.350Z,102059.27
2018-04-17T08:58:07.654Z,102058.36
2018-04-17T09:00:36.064Z,102060.09
2018-04-17T09:03:04.441Z,102059.27
2018-04-17T09:05:32.821Z,102059.67
2018-04-17T09:08:01.806Z,102066.60
2018-04-17T09:10:31.090Z,102061.77
2018-04-17T09:12:59.584Z,102070.33
2018-04-17T09:15:27.919Z,102073.74
2018-04-17T09:17:56.308Z,102070.69
2018-04-17T09:20:24.657Z,102069.77
2018-04-17T09:22:53.793Z,102074.45
2018-04-17T09:25:23.069Z,102072.22
2018-04-17T09:27:53.004Z,102069.16
2018-04-17T09:30:22.127Z,102064.34
2018-04-17T09:32:50.628Z,102066.44
2018-04-17T09:35:18.990Z,102064.13
2018-04-17T09:37:48.268Z,102064.06
2018-04-17T09:40:18.726Z,102064.42
2018-04-17T09:42:47.978Z,102066.51
2018-04-17T09:45:17.939Z,102065.16
2018-04-17T09:47:47.035Z,102064.70
2018-04-17T09:50:15.449Z,102067.73
2018-04-17T09:52:44.581Z,102069.94
2018-04-17T09:55:12.951Z,102073.02
2018-04-17T09:57:42.294Z,102072.14
2018-04-17T10:00:10.643Z,102071.28
2018-04-17T10:02:39.045Z,102075.57
2018-04-17T10:05:07.401Z,102071.24
2018-04-17T10:07:35.777Z,102072.34
2018-04-17T10:10:04.147Z,102074.33
2018-04-17T10:12:32.694Z,102076.27
2018-04-17T10:15:01.822Z,102074.37
2018-04-17T10:17:30.949Z,102069.94
2018-04-17T10:19:59.295Z,102062.25
2018-04-17T10:22:27.702Z,102062.41
2018-04-17T10:24:56.102Z,102059.80
2018-04-17T10:27:26.491Z,102063.49
2018-04-17T10:29:54.885Z,102059.92
2018-04-17T10:32:23.300Z,102060.16
2018-04-17T10:34:51.676Z,102057.32
2018-04-17T10:37:20.007Z,102057.28
2018-04-17T10:39:48.436Z,102055.48
2018-04-17T10:42:17.592Z,102046.56
2018-04-17T10:44:46.015Z,102049.81
2018-04-17T10:47:14.380Z,102053.02
2018-04-17T10:49:43.924Z,102049.82
2018-04-17T10:52:13.005Z,102039.64
2018-04-17T10:54:42.943Z,102046.53
2018-04-17T10:57:11.288Z,102041.39
2018-04-17T10:59:39.658Z,102030.89
2018-04-17T11:02:08.956Z,102036.44
2018-04-17T11:04:37.321Z,102030.22
2018-04-17T11:07:05.673Z,102023.53
2018-04-17T11:09:34.069Z,102026.70
2018-04-17T11:12:02.441Z,102020.45
2018-04-17T11:14:31.673Z,102020.83
2018-04-17T11:17:00.092Z,102020.69
2018-04-17T11:19:28.462Z,102014.40
2018-04-17T11:21:58.411Z,102009.61
2018-04-17T11:24:26.775Z,102022.63
2018-04-17T11:26:55.688Z,102015.09
2018-04-17T11:29:24.063Z,102022.78
2018-04-17T11:31:53.286Z,102021.34
2018-04-17T11:34:21.675Z,102016.96
2018-04-17T11:36:50.871Z,102016.70
2018-04-17T11:39:20.978Z,102012.02
2018-04-17T11:41:49.323Z,102011.41
2018-04-17T11:44:18.373Z,102012.41
2018-04-17T11:46:46.794Z,102011.16
2018-04-17T11:49:15.181Z,102012.39
2018-04-17T11:51:43.555Z,102011.79
2018-04-17T11:54:11.918Z,102014.97
2018-04-17T11:56:41.183Z,102006.41
2018-04-17T11:59:10.297Z,102005.98
2018-04-17T12:01:39.402Z,102000.48
2018-04-17T12:04:07.874Z,102004.72
2018-04-17T12:06:36.252Z,102001.80
2018-04-17T12:09:06.904Z,102002.95
2018-04-17T12:11:35.333Z,102001.94
2018-04-17T12:14:06.480Z,102001.11
2018-04-17T12:16:37.114Z,102010.94
2018-04-17T12:19:06.445Z,102008.23
2018-04-17T12:21:38.559Z,102012.14
2018-04-17T12:24:07.794Z,102012.09
2018-04-17T12:26:37.165Z,102015.23
2018-04-17T12:29:05.559Z,102019.05
2018-04-17T12:31:33.927Z,102011.28
2018-04-17T12:34:02.906Z,102009.12
2018-04-17T12:36:31.300Z,102018.35
2018-04-17T12:38:59.670Z,102011.58
2018-04-17T12:41:28.040Z,102012.15
2018-04-17T12:43:57.124Z,102008.69
2018-04-17T12:46:26.471Z,102010.06
2018-04-17T12:48:54.831Z,102007.41
2018-04-17T12:51:23.202Z,102005.16
2018-04-17T12:53:51.582Z,102010.23
2018-04-17T12:56:20.307Z,102013.16
2018-04-17T12:58:49.480Z,102009.66
2018-04-17T13:01:17.891Z,102014.02
2018-04-17T13:03:47.029Z,102009.77
2018-04-17T13:06:16.300Z,102012.22
2018-04-17T13:08:45.575Z,102004.47
2018-04-17T13:11:15.245Z,102008.25
2018-04-17T13:13:46.604Z,102012.94
2018-04-17T13:16:15.218Z,102011.17
2018-04-17T13:18:44.459Z,102009.50
2018-04-17T13:21:13.575Z,102009.59
2018-04-17T13:23:44.221Z,102013.16
2018-04-17T13:26:14.556Z,102005.27
2018-04-17T13:28:48.444Z,101999.42
2018-04-17T13:31:16.813Z,102009.91
2018-04-17T13:33:49.654Z,102000.81
2018-04-17T13:36:19.745Z,101997.51
2018-04-17T13:38:50.486Z,101999.02
2018-04-17T13:41:20.933Z,101995.77
2018-04-17T13:43:52.405Z,101986.61
2018-04-17T13:46:22.446Z,101984.06
2018-04-17T13:48:50.825Z,101983.69
2018-04-17T13:51:21.593Z,101985.00
2018-04-17T13:53:51.928Z,101979.97
2018-04-17T13:56:21.937Z,101975.16
2018-04-17T13:58:51.845Z,101970.70
2018-04-17T14:01:22.384Z,101977.44
2018-04-17T14:03:50.780Z,101980.90
2018-04-17T14:06:20.950Z,101981.04
2018-04-17T14:08:51.586Z,101979.69
2018-04-17T14:11:20.747Z,101978.00
2018-04-17T14:13:50.678Z,101974.53
2018-04-17T14:16:19.039Z,101969.98
2018-04-17T14:18:49.007Z,101970.70
2018-04-17T14:21:18.883Z,101980.91
2018-04-17T14:23:48.005Z,101976.53
2018-04-17T14:26:17.491Z,101973.14
2018-04-17T14:28:45.890Z,101969.06
2018-04-17T14:31:14.295Z,101974.67
2018-04-17T14:33:43.491Z,101970.19
2018-04-17T14:36:14.340Z,101973.52
2018-04-17T14:38:43.910Z,101972.09
2018-04-17T14:41:12.755Z,101975.82
2018-04-17T14:43:41.821Z,101975.63
2018-04-17T14:46:12.238Z,101981.75
2018-04-17T14:48:43.782Z,101990.92
2018-04-17T14:51:13.041Z,101983.41
2018-04-17T14:53:47.509Z,101991.36
2018-04-17T14:56:16.542Z,101984.39
2018-04-17T14:58:45.852Z,101987.37
2018-04-17T15:01:16.374Z,101990.66
2018-04-17T15:03:46.843Z,101992.32
2018-04-17T15:06:18.005Z,101992.42
2018-04-17T15:08:47.700Z,101996.91
2018-04-17T15:11:16.631Z,101997.10
2018-04-17T15:13:46.984Z,101994.64
2018-04-17T15:16:15.686Z,101996.09
2018-04-17T15:18:44.686Z,102005.89
2018-04-17T15:21:13.978Z,101998.02
2018-04-17T15:23:44.007Z,101995.49
2018-04-17T15:26:13.328Z,101995.28
2018-04-17T15:28:44.425Z,101994.18
2018-04-17T15:31:14.392Z,101998.69
2018-04-17T15:33:44.509Z,101997.89
2018-04-17T15:36:13.783Z,102001.97
2018-04-17T15:38:43.542Z,102002.84
2018-04-17T15:41:13.556Z,102004.94
2018-04-17T15:43:45.969Z,102004.29
2018-04-17T15:46:16.847Z,102004.47
2018-04-17T15:48:45.309Z,102010.99
2018-04-17T15:51:29.354Z,102003.08
2018-04-17T15:55:41.105Z,102007.08
2018-04-17T15:58:11.201Z,102002.99
2018-04-17T16:00:39.731Z,102001.47
2018-04-17T16:03:08.138Z,101991.45
2018-04-17T16:05:37.930Z,101991.96
2018-04-17T16:08:07.473Z,101990.38
2018-04-17T16:10:36.717Z,101995.53
2018-04-17T16:13:05.182Z,101983.84
2018-04-17T16:15:35.402Z,101991.14
2018-04-17T16:18:04.877Z,101982.64
2018-04-17T16:20:33.792Z,101978.85
2018-04-17T16:23:03.405Z,101984.59
2018-04-17T16:25:32.712Z,101987.56
2018-04-17T16:28:02.006Z,101993.30
2018-04-17T16:30:31.277Z,102001.02
2018-04-17T16:33:00.002Z,101995.02
2018-04-17T16:35:29.241Z,101998.53
2018-04-17T16:37:58.381Z,102003.19
2018-04-17T16:40:27.641Z,102004.20
2018-04-17T16:42:56.055Z,102003.25
2018-04-17T16:45:24.563Z,102009.70
2018-04-17T16:47:53.045Z,102009.74
2018-04-17T16:50:21.472Z,102013.44
2018-04-17T16:52:49.954Z,102016.73
2018-04-17T16:55:18.346Z,102018.19
2018-04-17T16:57:48.343Z,102013.05
2018-04-17T17:00:16.725Z,102021.94
2018-04-17T17:02:45.161Z,102025.78
2018-04-17T17:05:13.563Z,102021.86
2018-04-17T17:07:43.516Z,102024.81
2018-04-17T17:10:11.930Z,102014.96
2018-04-17T17:12:41.059Z,102016.87
2018-04-17T17:15:09.550Z,102019.26
2018-04-17T17:17:37.974Z,102023.88
2018-04-17T17:20:07.283Z,102026.19
2018-04-17T17:22:36.408Z,102032.81
2018-04-17T17:25:04.904Z,102039.76
2018-04-17T17:27:33.315Z,102043.70
2018-04-17T17:30:02.513Z,102043.63
2018-04-17T17:32:31.327Z,102047.09
2018-04-17T17:35:01.264Z,102047.97
2018-04-17T17:37:29.627Z,102054.61
2018-04-17T17:39:58.763Z,102055.50
2018-04-17T17:42:27.139Z,102059.92
2018-04-17T17:44:55.626Z,102063.92
2018-04-17T17:47:24.050Z,102066.58
2018-04-17T17:49:52.411Z,102071.45
2018-04-17T17:52:21.216Z,102076.42
2018-04-17T17:54:50.381Z,102073.41
2018-04-17T17:57:18.757Z,102079.75
2018-04-17T17:59:47.238Z,102080.89
2018-04-17T18:02:15.677Z,102085.83
2018-04-17T18:04:44.763Z,102083.39
2018-04-17T18:07:13.182Z,102080.92
2018-04-17T18:09:41.647Z,102082.33
2018-04-17T18:12:10.973Z,102087.27
2018-04-17T18:14:41.051Z,102073.97
2018-04-17T18:17:10.164Z,102077.98
2018-04-17T18:19:39.000Z,102086.38
2018-04-17T18:22:07.603Z,102089.12
2018-04-17T18:24:36.805Z,102107.04
2018-04-17T18:27:05.973Z,102107.91
2018-04-17T18:29:34.336Z,102114.42
2018-04-17T18:32:03.199Z,102120.03
2018-04-17T18:34:31.580Z,102116.11
2018-04-17T18:37:00.528Z,102111.44
2018-04-17T18:39:28.990Z,102114.00
2018-04-17T18:41:57.498Z,102119.27
2018-04-17T18:44:26.647Z,102120.64
2018-04-17T18:46:55.079Z,102125.88
2018-04-17T18:49:24.418Z,102132.09
2018-04-17T18:51:52.794Z,102134.33
2018-04-17T18:54:21.135Z,102136.09
2018-04-17T18:56:50.323Z,102141.81
2018-04-17T18:59:18.744Z,102150.62
2018-04-17T19:01:47.262Z,102157.40
2018-04-17T19:04:16.439Z,102159.69
2018-04-17T19:06:44.879Z,102167.09
2018-04-17T19:09:26.040Z,102172.73
2018-04-17T19:11:54.477Z,102172.80
2018-04-17T19:14:22.953Z,102171.98
2018-04-17T19:16:52.184Z,102167.70
2018-04-17T19:19:20.654Z,102158.62
2018-04-17T19:21:49.033Z,102162.59
2018-04-17T19:24:17.419Z,102172.26
2018-04-17T19:26:45.855Z,102175.31
2018-04-17T19:29:14.248Z,102175.77
2018-04-17T19:31:42.654Z,102180.59
2018-04-17T19:34:10.974Z,102181.95
2018-04-17T19:37:00.330Z,102183.30
2018-04-17T19:39:29.483Z,102183.42
2018-04-17T19:41:57.908Z,102185.30
2018-04-17T19:44:27.085Z,102183.57
2018-04-17T19:46:55.451Z,102182.70
2018-04-17T19:49:23.838Z,102181.88
2018-04-17T19:51:52.286Z,102194.52
2018-04-17T19:54:20.664Z,102192.84
2018-04-17T19:56:49.025Z,102191.14
2018-04-17T19:59:17.461Z,102196.84
2018-04-17T20:01:47.919Z,102200.83
2018-04-17T20:04:17.078Z,102194.41
2018-04-17T20:06:45.493Z,102201.48
2018-04-17T20:09:14.658Z,102205.39
2018-04-17T20:11:43.739Z,102211.95
2018-04-17T20:14:12.142Z,102210.28
2018-04-17T20:16:40.527Z,102203.82
2018-04-17T20:19:08.962Z,102211.67
2018-04-17T20:21:37.346Z,102207.38
2018-04-17T20:24:05.793Z,102215.66
2018-04-17T20:26:34.241Z,102212.69
2018-04-17T20:29:02.660Z,102212.73
2018-04-17T20:31:31.134Z,102218.40
2018-04-17T20:33:59.517Z,102220.63
2018-04-17T20:36:27.893Z,102218.53
2018-04-17T20:38:56.272Z,102222.93
2018-04-17T20:41:24.788Z,102222.96
2018-04-17T20:43:53.198Z,102229.09
2018-04-17T20:46:22.326Z,102228.22
2018-04-17T20:48:51.518Z,102231.31
2018-04-17T20:51:20.728Z,102226.14
2018-04-17T20:53:49.096Z,102220.97
2018-04-17T20:56:18.289Z,102229.64
2018-04-17T20:58:48.685Z,102232.70
2018-04-17T21:01:17.060Z,102235.75
2018-04-17T21:03:45.931Z,102236.19
2018-04-17T21:06:14.358Z,102233.64
2018-04-17T21:08:43.658Z,102231.90
2018-04-17T21:11:12.105Z,102231.92
2018-04-17T21:13:40.485Z,102228.47
2018-04-17T21:16:08.872Z,102230.66
2018-04-17T21:18:37.783Z,102227.22
2018-04-17T21:21:06.537Z,102231.16
2018-04-17T21:23:35.489Z,102232.92
2018-04-17T21:26:03.921Z,102235.10
2018-04-17T21:28:32.347Z,102234.25
2018-04-17T21:31:00.851Z,102233.41
2018-04-17T21:33:29.241Z,102240.77
2018-04-17T21:35:58.329Z,102238.62
2018-04-17T21:38:27.473Z,102239.09
2018-04-17T21:40:55.841Z,102244.30
2018-04-17T21:43:24.371Z,102246.05
2018-04-17T21:45:52.723Z,102246.03
2018-04-17T21:48:21.973Z,102244.34
2018-04-17T21:50:50.800Z,102245.65
2018-04-17T21:53:19.234Z,102245.66
2018-04-17T21:55:47.613Z,102243.53
2018-04-17T21:58:16.020Z,102243.95
2018-04-17T22:00:44.441Z,102249.58
2018-04-17T22:03:14.093Z,102251.75
2018-04-17T22:05:42.454Z,102251.33
2018-04-17T22:08:10.860Z,102254.80
2018-04-17T22:10:39.240Z,102254.80
2018-04-17T22:13:07.587Z,102255.69
2018-04-17T22:15:36.070Z,102256.56
2018-04-17T22:18:05.933Z,102256.13
2018-04-17T22:20:34.297Z,102255.68
2018-04-17T22:23:03.512Z,102262.18
2018-04-17T22:25:31.894Z,102267.35
2018-04-17T22:28:00.270Z,102270.37
2018-04-17T22:30:29.325Z,102269.97
2018-04-17T22:32:58.025Z,102277.31
2018-04-17T22:35:26.442Z,102270.83
2018-04-17T22:37:56.345Z,102269.98
2018-04-17T22:40:28.173Z,102271.70
2018-04-17T22:42:56.792Z,102272.11
2018-04-17T22:45:25.743Z,102271.27
2018-04-17T22:47:55.731Z,102270.85
2018-04-17T22:50:25.930Z,102271.28
2018-04-17T22:52:54.312Z,102270.41
2018-04-17T22:55:24.171Z,102269.97
2018-04-17T22:57:52.713Z,102268.69
2018-04-17T23:00:21.868Z,102268.24
2018-04-17T23:02:50.283Z,102276.91
2018-04-17T23:05:18.828Z,102280.78
2018-04-17T23:07:47.178Z,102274.73
2018-04-17T23:10:15.537Z,102275.16
2018-04-17T23:12:46.556Z,102279.48
2018-04-17T23:15:17.001Z,102282.50
2018-04-17T23:17:46.169Z,102282.50
2018-04-17T23:20:14.530Z,102286.39
2018-04-17T23:22:42.893Z,102285.10
2018-04-17T23:25:11.878Z,102288.13
2018-04-17T23:27:40.503Z,102287.26
2018-04-17T23:30:09.561Z,102284.64
2018-04-17T23:32:38.432Z,102291.57
2018-04-17T23:35:07.570Z,102288.53
2018-04-17T23:37:35.982Z,102288.53
2018-04-17T23:40:05.164Z,102294.98
2018-04-17T23:42:35.437Z,102291.53
2018-04-17T23:45:03.867Z,102293.27
2018-04-17T23:47:33.124Z,102291.53
2018-04-17T23:50:01.955Z,102291.52
2018-04-17T23:52:30.344Z,102290.63
2018-04-17T23:54:59.502Z,102298.00
2018-04-17T23:57:28.225Z,102298.84
2018-04-17T23:59:57.246Z,102296.23
